Time;durP1;ratioP1;P1;durP2;ratioP2;P2;SDS_P1;SDS_P2;PMS_P1;PMS_P2;Temp;Humidity;BMP_temperature;BMP_pressure;BME280_temperature;BME280_humidity;BME280_pressure;Samples;Min_cycle;Max_cycle;Signal;HPM_P1;HPM_P2
2021/12/17 00:07:11;;;;;;;19.05;3.77;;;;;;;4.80;89.06;102515.55;1619820;88;21160;-72
2021/12/17 00:09:39;;;;;;;28.02;4.53;;;;;;;4.81;89.07;102513.45;1596344;88;21855;-72
2021/12/17 00:12:10;;;;;;;26.77;4.40;;;;;;;4.82;89.05;102522.89;1620215;88;22192;-72
2021/12/17 00:14:41;;;;;;;23.22;4.75;;;;;;;4.83;89.04;102513.97;1620407;88;21532;-72
2021/12/17 00:17:14;;;;;;;24.07;5.17;;;;;;;4.83;89.03;102519.51;1620106;87;21067;-72
2021/12/17 00:49:57;;;;;;;23.50;4.42;;;;;;;4.73;89.00;102519.56;1620449;87;21072;-72
2021/12/17 00:52:12;;;;;;;23.22;4.72;;;;;;;4.73;89.00;102516.12;1625978;87;21068;-72
2021/12/17 00:54:42;;;;;;;28.38;4.70;;;;;;;4.70;88.96;102511.76;1621436;88;21115;-72
2021/12/17 00:57:14;;;;;;;24.25;4.60;;;;;;;4.69;88.96;102513.85;1621062;88;21039;-72
2021/12/17 00:59:47;;;;;;;29.98;4.83;;;;;;;4.63;88.88;102508.13;1620058;88;21455;-72
2021/12/17 01:02:19;;;;;;;23.38;5.00;;;;;;;4.60;88.92;102499.44;1594079;88;21072;-72
2021/12/17 01:04:50;;;;;;;18.40;4.22;;;;;;;4.56;88.93;102501.01;1626155;88;21060;-72
2021/12/17 01:07:19;;;;;;;17.65;4.12;;;;;;;4.53;88.87;102508.58;1627535;87;21080;-72
2021/12/17 01:09:46;;;;;;;21.27;4.45;;;;;;;4.50;88.89;102512.70;1627717;87;21065;-72
2021/12/17 01:12:15;;;;;;;21.77;4.83;;;;;;;4.46;88.88;102502.75;1627180;87;21132;-72
2021/12/17 01:14:43;;;;;;;21.00;4.00;;;;;;;4.44;88.91;102499.66;1620522;87;21128;-72
2021/12/17 01:17:12;;;;;;;21.95;4.50;;;;;;;4.40;88.91;102490.98;1619880;87;21568;-72
2021/12/17 01:25:03;;;;;;;22.90;4.17;;;;;;;4.27;89.25;102487.47;1595147;89;21108;-72
2021/12/17 01:35:44;;;;;;;23.52;3.52;;;;;;;4.15;88.94;102502.37;1620586;87;20922;-72
2021/12/17 01:39:25;;;;;;;21.15;3.52;;;;;;;4.11;88.94;102503.92;1623237;87;20968;-72
2021/12/17 01:43:48;;;;;;;14.63;4.35;;;;;;;4.06;88.98;102518.22;1613835;88;21030;-72
2021/12/17 01:46:20;;;;;;;16.30;3.35;;;;;;;4.03;88.99;102508.27;1627093;88;20937;-72
2021/12/17 01:49:21;;;;;;;19.32;3.45;;;;;;;3.99;88.98;102508.14;1627996;87;21116;-72
2021/12/17 01:59:54;;;;;;;21.15;4.15;;;;;;;3.85;89.00;102504.13;1626947;87;21092;-72
2021/12/17 02:02:21;;;;;;;23.10;4.90;;;;;;;3.83;88.98;102504.47;1627361;87;21100;-72
2021/12/17 02:04:47;;;;;;;18.25;3.75;;;;;;;3.80;88.99;102504.34;1626436;87;21072;-72
2021/12/17 02:07:13;;;;;;;23.73;3.27;;;;;;;3.78;89.00;102506.37;1626980;88;21104;-72
2021/12/17 02:32:00;;;;;;;19.50;3.67;;;;;;;3.56;88.96;102483.75;1627305;87;21087;-72
2021/12/17 02:37:16;;;;;;;26.90;6.08;;;;;;;3.52;89.05;102492.50;1605985;88;21595;-72
2021/12/17 02:47:38;;;;;;;22.85;5.47;;;;;;;3.44;89.07;102501.53;1613590;87;21080;-72
2021/12/17 02:50:07;;;;;;;15.32;3.85;;;;;;;3.42;89.07;102507.86;1620726;87;21624;-72
2021/12/17 02:52:36;;;;;;;23.73;3.37;;;;;;;3.43;89.05;102510.01;1621690;88;20933;-72
2021/12/17 02:55:06;;;;;;;14.80;3.37;;;;;;;3.41;89.08;102515.45;1620902;87;21159;-72
2021/12/17 02:57:39;;;;;;;;;;;;;;;3.38;89.06;102520.03;1624034;87;20956;-72
2021/12/17 03:00:08;;;;;;;13.65;3.40;;;;;;;3.36;89.07;102513.98;1615821;87;404965;-72
2021/12/17 03:02:38;;;;;;;27.35;4.08;;;;;;;3.36;89.08;102519.49;1603953;88;21132;-72
2021/12/17 03:05:07;;;;;;;16.85;3.55;;;;;;;3.35;89.07;102511.36;1621470;88;21083;-72
2021/12/17 03:07:37;;;;;;;21.60;4.15;;;;;;;3.33;89.11;102503.21;1621978;87;21123;-72
2021/12/17 03:10:06;;;;;;;24.47;4.30;;;;;;;3.35;89.14;102513.51;1624151;88;21079;-72
2021/12/17 03:12:44;;;;;;;30.35;3.77;;;;;;;3.35;89.12;102508.39;1621339;88;21068;-72
2021/12/17 03:15:23;;;;;;;18.45;3.98;;;;;;;3.35;89.10;102513.51;1621620;88;20992;-72
2021/12/17 03:26:03;;;;;;;13.78;2.30;;;;;;;3.36;89.17;102537.39;1580306;89;21164;-72
2021/12/17 03:28:31;;;;;;;15.83;3.20;;;;;;;3.38;89.21;102531.54;1587945;89;21021;-72
2021/12/17 03:30:58;;;;;;;15.65;3.58;;;;;;;3.41;89.22;102528.24;1599466;89;21061;-72
2021/12/17 03:33:24;;;;;;;;;;;;;;;3.43;89.20;102537.73;1601722;89;20957;-72
2021/12/17 03:35:52;;;;;;;16.80;3.70;;;;;;;3.46;89.24;102535.71;1599404;89;20147;-72
2021/12/17 03:38:19;;;;;;;12.60;3.85;;;;;;;3.49;89.26;102530.33;1589042;89;21002;-72
2021/12/17 03:40:47;;;;;;;19.77;3.52;;;;;;;3.52;89.24;102531.74;1568255;89;20930;-72
2021/12/17 03:43:21;;;;;;;17.62;3.87;;;;;;;3.54;89.23;102533.96;1556384;91;21048;-72
2021/12/17 03:45:43;;;;;;;19.05;4.08;;;;;;;3.59;89.24;102539.28;1549131;92;21024;-72
2021/12/17 03:48:09;;;;;;;21.23;4.33;;;;;;;3.61;89.25;102533.42;1607285;89;20983;-72
2021/12/17 03:50:37;;;;;;;18.60;3.72;;;;;;;3.65;89.19;102532.70;1607329;89;21003;-72
2021/12/17 03:53:08;;;;;;;10.70;3.15;;;;;;;3.68;89.22;102526.85;1620602;87;20931;-72
2021/12/17 03:55:34;;;;;;;13.93;3.10;;;;;;;3.70;89.21;102518.84;1631519;87;21604;-72
2021/12/17 03:58:01;;;;;;;16.02;3.33;;;;;;;3.73;89.19;102523.21;1655645;85;21127;-72
2021/12/17 04:00:29;;;;;;;13.88;3.02;;;;;;;3.74;89.20;102512.16;1670215;85;21068;-72
2021/12/17 04:02:55;;;;;;;17.42;3.92;;;;;;;3.76;89.15;102510.55;1671773;85;20896;-72
2021/12/17 04:05:23;;;;;;;18.42;3.65;;;;;;;3.76;89.16;102501.19;1671964;85;20877;-72
2021/12/17 04:07:52;;;;;;;18.02;3.47;;;;;;;3.79;89.18;102510.67;1672075;85;20905;-72
2021/12/17 04:10:19;;;;;;;15.28;3.33;;;;;;;3.81;89.22;102507.38;1670911;85;21011;-72
2021/12/17 04:15:16;;;;;;;12.65;3.12;;;;;;;3.85;89.23;102512.21;1657350;85;21568;-72
2021/12/17 04:17:52;;;;;;;17.32;4.25;;;;;;;3.85;89.21;102499.42;1669482;85;21063;-72
2021/12/17 04:20:11;;;;;;;14.93;3.12;;;;;;;3.87;89.21;102495.23;1668828;85;21083;-72
2021/12/17 04:22:38;;;;;;;23.75;4.03;;;;;;;3.89;89.19;102494.90;1670430;85;21066;-72
2021/12/17 04:25:07;;;;;;;12.53;3.25;;;;;;;3.89;89.18;102493.21;1670316;85;21072;-72
2021/12/17 04:27:34;;;;;;;28.62;5.35;;;;;;;3.90;89.21;102496.23;1669282;85;25215;-72
2021/12/17 04:30:00;;;;;;;19.73;5.67;;;;;;;3.91;89.20;102499.27;1670214;85;21097;-72
2021/12/17 04:32:26;;;;;;;23.25;4.70;;;;;;;3.92;89.18;102500.14;1553982;84;10000728;-72
2021/12/17 04:34:52;;;;;;;22.62;4.53;;;;;;;3.92;89.20;102498.86;1668980;85;21052;-72
2021/12/17 04:37:19;;;;;;;19.37;6.17;;;;;;;3.91;89.16;102497.98;1667311;85;21365;-72
2021/12/17 04:39:46;;;;;;;19.77;5.37;;;;;;;3.91;89.15;102489.44;1670311;85;21606;-72
2021/12/17 04:42:29;;;;;;;19.85;4.85;;;;;;;3.90;89.13;102482.58;1669157;85;22233;-72
2021/12/17 04:44:53;;;;;;;19.45;5.15;;;;;;;3.88;89.10;102476.52;1646253;85;21342;-72
2021/12/17 04:57:55;;;;;;;15.65;3.60;;;;;;;3.79;89.10;102459.50;1670436;85;21339;-71
2021/12/17 05:00:25;;;;;;;18.70;3.20;;;;;;;3.76;89.11;102467.05;1669949;85;21568;-71
2021/12/17 05:02:55;;;;;;;24.12;3.47;;;;;;;3.73;89.13;102474.59;1660181;84;21035;-71
2021/12/17 05:05:28;;;;;;;23.10;4.15;;;;;;;3.72;89.18;102476.28;1670419;85;21063;-71
2021/12/17 05:07:59;;;;;;;24.10;4.67;;;;;;;3.72;89.18;102480.52;1665454;85;20933;-71
2021/12/17 05:18:43;;;;;;;20.45;4.17;;;;;;;3.71;89.25;102478.78;1670606;85;20969;-70
2021/12/17 05:21:07;;;;;;;37.13;6.80;;;;;;;3.73;89.27;102489.95;1670081;85;21032;-70
2021/12/17 05:23:41;;;;;;;22.52;3.60;;;;;;;3.73;89.22;102494.66;1670874;85;40356;-70
2021/12/17 05:26:12;;;;;;;15.95;3.60;;;;;;;3.73;89.22;102496.34;1669947;85;20968;-70
2021/12/17 05:28:38;;;;;;;21.10;3.95;;;;;;;3.73;89.20;102484.42;1669410;85;20940;-70
2021/12/17 05:31:05;;;;;;;18.82;3.70;;;;;;;3.74;89.21;102478.50;1671444;85;20928;-70
2021/12/17 05:33:31;;;;;;;19.17;3.15;;;;;;;3.74;89.18;102472.11;1660625;84;21326;-70
2021/12/17 05:35:57;;;;;;;21.40;3.60;;;;;;;3.74;89.18;102465.71;1661070;84;21365;-70
2021/12/17 05:38:26;;;;;;;20.60;3.55;;;;;;;3.75;89.15;102464.02;1667146;85;20877;-70
2021/12/17 05:40:54;;;;;;;16.60;3.67;;;;;;;3.73;89.12;102469.08;1674004;85;21392;-75
2021/12/17 05:43:20;;;;;;;28.38;4.65;;;;;;;3.73;89.14;102469.48;1676168;85;21452;-76
2021/12/17 05:48:23;;;;;;;21.30;3.25;;;;;;;3.73;89.13;102481.00;1675563;85;20889;-75
2021/12/17 05:50:55;;;;;;;22.48;4.35;;;;;;;3.73;89.17;102483.55;1675971;85;20921;-75
2021/12/17 05:53:22;;;;;;;25.23;3.42;;;;;;;3.74;89.14;102486.17;1674732;85;21639;-75
2021/12/17 05:55:49;;;;;;;15.48;3.40;;;;;;;3.76;89.16;102482.00;1674723;85;21063;-75
2021/12/17 05:58:16;;;;;;;21.82;4.80;;;;;;;3.76;89.16;102488.39;1670068;84;21119;-75
2021/12/17 06:00:44;;;;;;;18.73;3.50;;;;;;;3.78;89.16;102491.89;1674759;85;21533;-76
2021/12/17 06:03:12;;;;;;;28.20;4.00;;;;;;;3.81;89.18;102495.86;1675119;85;21032;-76
2021/12/17 06:05:38;;;;;;;16.67;3.20;;;;;;;3.83;89.17;102490.40;1675237;84;21055;-76
2021/12/17 06:08:05;;;;;;;20.05;3.42;;;;;;;3.84;89.16;102488.71;1674676;85;21008;-76
2021/12/17 06:10:32;;;;;;;18.80;3.15;;;;;;;3.84;89.14;102496.39;1670163;85;21134;-76
2021/12/17 06:12:58;;;;;;;25.17;3.77;;;;;;;3.84;89.13;102501.11;1675981;85;21352;-76
2021/12/17 06:15:25;;;;;;;27.15;4.22;;;;;;;3.85;89.13;102496.86;1676454;85;21444;-76
2021/12/17 06:17:52;;;;;;;16.93;3.92;;;;;;;3.85;89.12;102495.58;1675891;85;21723;-76
2021/12/17 06:20:20;;;;;;;21.17;3.05;;;;;;;3.83;89.09;102496.80;1675740;85;20996;-76
2021/12/17 06:22:50;;;;;;;20.25;4.85;;;;;;;3.83;89.06;102514.70;1676216;85;20885;-76
2021/12/17 06:25:17;;;;;;;25.55;5.30;;;;;;;3.82;89.08;102507.84;1675787;85;20940;-76
2021/12/17 06:27:44;;;;;;;15.53;2.37;;;;;;;3.84;89.14;102507.91;1676341;85;20925;-76
2021/12/17 06:30:13;;;;;;;26.02;4.30;;;;;;;3.85;89.14;102514.77;1630098;87;20906;-76
2021/12/17 06:32:40;;;;;;;29.63;4.08;;;;;;;3.84;89.10;102507.50;1628477;87;20930;-76
2021/12/17 06:35:07;;;;;;;19.20;3.12;;;;;;;3.84;89.12;102503.66;1628927;87;20918;-76
2021/12/17 06:37:34;;;;;;;25.30;4.37;;;;;;;3.85;89.10;102500.70;1628422;87;21530;-76
2021/12/17 06:40:02;;;;;;;27.13;3.90;;;;;;;3.85;89.09;102503.26;1626053;87;20919;-76
2021/12/17 06:42:29;;;;;;;18.17;3.42;;;;;;;3.84;89.08;102508.78;1621682;87;20950;-76
2021/12/17 06:45:01;;;;;;;19.57;3.90;;;;;;;3.84;89.07;102505.34;1621907;87;20930;-76
2021/12/17 06:47:34;;;;;;;22.48;3.75;;;;;;;3.84;89.08;102508.78;1595659;88;20966;-76
2021/12/17 07:10:51;;;;;;;17.12;3.20;;;;;;;3.79;89.03;102515.39;1618408;88;21385;-76
2021/12/17 07:21:39;;;;;;;14.98;3.62;;;;;;;3.75;89.05;102543.34;1621489;87;21396;-75
2021/12/17 07:34:46;;;;;;;19.30;3.60;;;;;;;3.70;89.05;102528.19;1621242;87;20938;-75
2021/12/17 07:39:43;;;;;;;26.30;3.70;;;;;;;3.70;89.05;102534.59;1621668;87;20930;-75
2021/12/17 07:42:09;;;;;;;27.05;4.58;;;;;;;3.71;89.07;102535.06;1623138;87;20973;-75
2021/12/17 07:44:36;;;;;;;16.90;3.35;;;;;;;3.70;89.08;102536.74;1621918;87;25152;-75
2021/12/17 07:47:03;;;;;;;16.45;3.65;;;;;;;3.73;89.12;102541.12;1596317;89;20994;-72
2021/12/17 07:49:29;;;;;;;23.42;4.62;;;;;;;3.74;89.12;102547.58;1622185;87;20974;-72
2021/12/17 07:51:55;;;;;;;21.52;3.85;;;;;;;3.75;89.11;102551.89;1621704;87;20914;-72
2021/12/17 07:54:21;;;;;;;18.35;3.90;;;;;;;3.76;89.10;102549.80;1622033;87;20950;-72
2021/12/17 07:56:48;;;;;;;17.73;3.77;;;;;;;3.78;89.08;102552.42;1620822;87;21089;-72
2021/12/17 07:59:14;;;;;;;21.27;3.80;;;;;;;3.79;89.10;102540.98;1621577;87;21552;-72
2021/12/17 08:01:41;;;;;;;19.35;3.45;;;;;;;3.83;89.13;102550.94;1611769;88;28784;-72
2021/12/17 08:04:10;;;;;;;20.90;3.40;;;;;;;3.86;89.15;102547.23;1619554;87;21569;-72
2021/12/17 08:06:38;;;;;;;19.20;4.58;;;;;;;3.88;89.12;102545.20;1621916;87;20957;-72
2021/12/17 08:09:05;;;;;;;20.05;3.72;;;;;;;3.91;89.12;102547.89;1621841;88;20930;-72
2021/12/17 08:11:38;;;;;;;19.80;3.45;;;;;;;3.95;89.15;102547.62;1623289;87;20969;-72
2021/12/17 08:14:01;;;;;;;17.05;2.92;;;;;;;3.98;89.13;102546.06;1596026;88;20986;-72
2021/12/17 08:16:38;;;;;;;23.32;3.85;;;;;;;4.02;89.11;102542.35;1621822;87;21530;-72
2021/12/17 08:24:46;;;;;;;17.77;3.30;;;;;;;4.07;89.08;102524.22;1614174;87;21411;-72
2021/12/17 08:32:06;;;;;;;26.00;4.55;;;;;;;4.17;89.13;102533.99;1614803;87;21889;-72
2021/12/17 08:34:33;;;;;;;16.85;4.58;;;;;;;4.21;89.21;102535.86;1621020;87;20929;-72
2021/12/17 08:37:00;;;;;;;20.65;3.40;;;;;;;4.25;89.18;102535.18;1622418;88;20898;-72
2021/12/17 08:39:31;;;;;;;20.40;3.45;;;;;;;4.27;89.12;102541.23;1621519;88;21337;-72
2021/12/17 08:41:59;;;;;;;19.05;3.52;;;;;;;4.27;89.09;102546.36;1568520;87;5001178;-72
2021/12/17 08:44:26;;;;;;;16.57;4.05;;;;;;;4.29;89.09;102552.02;1611069;88;21415;-72
2021/12/17 08:46:52;;;;;;;27.73;4.22;;;;;;;4.30;89.09;102547.36;1628726;87;20886;-72
2021/12/17 08:49:19;;;;;;;16.02;3.10;;;;;;;4.32;89.07;102552.14;1628823;87;21435;-72
2021/12/17 08:51:46;;;;;;;20.40;4.22;;;;;;;4.35;89.10;102554.35;1628842;87;21822;-72
2021/12/17 08:54:12;;;;;;;24.40;3.95;;;;;;;4.38;89.10;102562.16;1628740;87;21410;-72
2021/12/17 08:56:49;;;;;;;19.23;4.33;;;;;;;4.38;89.11;102559.59;1628706;88;21038;-72
2021/12/17 08:59:17;;;;;;;18.62;5.30;;;;;;;4.40;89.09;102552.45;1628789;87;21419;-72
2021/12/17 09:01:45;;;;;;;18.73;3.80;;;;;;;4.40;89.09;102544.77;1628354;87;20969;-72
2021/12/17 09:04:12;;;;;;;23.07;4.37;;;;;;;4.45;89.11;102546.23;1610047;88;21557;-72
2021/12/17 09:06:39;;;;;;;16.07;3.22;;;;;;;4.46;89.10;102533.48;1628859;87;20913;-72
2021/12/17 09:09:06;;;;;;;17.55;3.30;;;;;;;4.47;89.08;102528.83;1628877;87;21525;-72
2021/12/17 09:11:33;;;;;;;14.73;2.70;;;;;;;4.49;89.11;102531.05;1615947;86;21590;-72
2021/12/17 09:14:03;;;;;;;19.87;3.58;;;;;;;4.52;89.08;102537.56;1624155;86;21490;-72
2021/12/17 09:16:29;;;;;;;11.48;2.83;;;;;;;4.54;89.12;102539.78;1628233;86;20926;-72
2021/12/17 09:18:57;;;;;;;20.23;4.05;;;;;;;4.57;89.09;102539.91;1629048;87;21509;-72
2021/12/17 09:21:23;;;;;;;15.48;4.53;;;;;;;4.59;89.09;102545.09;1628628;87;20965;-72
2021/12/17 09:23:50;;;;;;;21.05;3.67;;;;;;;4.60;89.09;102543.87;1628651;87;20980;-72
2021/12/17 09:26:17;;;;;;;15.50;3.33;;;;;;;4.62;89.08;102543.52;1628638;87;21057;-72
2021/12/17 09:28:44;;;;;;;22.02;3.75;;;;;;;4.67;89.09;102550.52;1628691;88;20957;-72
2021/12/17 09:31:11;;;;;;;21.07;3.30;;;;;;;4.69;89.06;102551.01;1628374;87;21560;-72
2021/12/17 09:33:42;;;;;;;17.65;3.70;;;;;;;4.72;89.07;102556.66;1629688;86;21418;-72
2021/12/17 09:36:10;;;;;;;19.65;3.52;;;;;;;4.74;89.08;102564.88;1627532;88;21450;-72
2021/12/17 09:38:37;;;;;;;15.75;3.60;;;;;;;4.78;89.08;102564.59;1628825;87;20890;-72
2021/12/17 09:41:04;;;;;;;14.38;3.27;;;;;;;4.83;89.08;102568.20;1626981;87;20949;-72
2021/12/17 09:43:37;;;;;;;14.43;3.52;;;;;;;4.84;89.08;102559.70;1621937;87;21423;-72
2021/12/17 09:46:00;;;;;;;20.05;3.75;;;;;;;4.85;89.05;102565.30;1622336;87;20957;-72
2021/12/17 09:48:26;;;;;;;20.68;3.58;;;;;;;4.89;89.05;102565.87;1621685;87;20906;-72
2021/12/17 09:50:54;;;;;;;20.82;4.58;;;;;;;4.93;89.06;102569.91;1622064;87;21455;-72
2021/12/17 09:53:20;;;;;;;23.47;4.55;;;;;;;4.96;89.05;102566.58;1622624;87;20993;-72
2021/12/17 09:58:29;;;;;;;15.97;3.43;;;;;;;5.04;89.01;102563.03;1859947;76;24047;-72
2021/12/17 10:00:56;;;;;;;22.77;4.62;;;;;;;5.02;88.98;102573.63;1823019;77;20962;-72
2021/12/17 10:03:23;;;;;;;24.47;4.62;;;;;;;5.03;88.99;102568.97;1828176;77;21091;-74
2021/12/17 10:05:49;;;;;;;11.95;3.50;;;;;;;5.03;88.96;102569.84;1834749;77;20918;-74
2021/12/17 10:08:19;;;;;;;20.48;3.67;;;;;;;5.05;88.96;102564.78;1823318;77;21508;-74
2021/12/17 10:10:51;;;;;;;18.90;3.90;;;;;;;5.07;88.96;102560.17;1825377;77;20947;-74
2021/12/17 10:13:25;;;;;;;31.57;4.20;;;;;;;5.10;88.99;102553.88;1824682;77;20917;-74
2021/12/17 10:16:06;;;;;;;15.63;3.67;;;;;;;5.16;89.00;102556.67;1844044;77;20882;-74
2021/12/17 10:18:43;;;;;;;12.15;3.27;;;;;;;5.20;88.96;102547.41;1819059;77;21354;-74
2021/12/17 10:21:19;;;;;;;17.57;3.87;;;;;;;5.21;88.90;102557.69;1820632;77;20873;-73
2021/12/17 10:23:47;;;;;;;20.10;4.53;;;;;;;5.23;88.90;102554.77;1825342;77;20914;-74
2021/12/17 10:26:18;;;;;;;21.68;3.75;;;;;;;5.21;88.81;102553.84;1825257;77;20864;-74
2021/12/17 10:29:00;;;;;;;19.90;3.30;;;;;;;5.18;88.75;102551.19;1825602;77;20857;-74
2021/12/17 10:31:29;;;;;;;20.90;3.50;;;;;;;5.16;88.73;102554.52;1827207;77;20881;-74
2021/12/17 10:34:01;;;;;;;16.87;3.22;;;;;;;5.12;88.71;102545.84;1810010;77;20913;-74
2021/12/17 10:36:34;;;;;;;20.95;3.37;;;;;;;5.10;88.74;102552.59;1830176;77;20972;-74
2021/12/17 10:39:03;;;;;;;16.32;3.15;;;;;;;5.10;88.76;102551.31;1814315;77;21095;-74
2021/12/17 10:41:31;;;;;;;17.25;2.90;;;;;;;5.11;88.72;102556.91;1819879;77;21100;-74
2021/12/17 10:44:07;;;;;;;16.17;2.90;;;;;;;5.14;88.80;102549.73;1825098;77;20901;-74
2021/12/17 10:46:44;;;;;;;;;;;;;;;5.16;88.80;102548.98;1838415;77;20937;-74
2021/12/17 10:51:50;;;;;;;17.00;3.05;;;;;;;5.24;88.83;102550.52;1816268;77;21007;-73
2021/12/17 10:54:19;;;;;;;23.65;4.78;;;;;;;5.28;88.83;102546.84;1808858;77;21016;-74
2021/12/17 10:56:51;;;;;;;15.13;3.27;;;;;;;5.31;88.85;102561.05;1803430;77;20892;-74
2021/12/17 10:59:28;;;;;;;20.12;3.25;;;;;;;5.35;88.79;102552.19;1799393;78;20900;-74
2021/12/17 11:02:05;;;;;;;14.75;3.50;;;;;;;5.36;88.74;102556.50;1803690;78;20876;-74
2021/12/17 11:04:33;;;;;;;17.10;3.75;;;;;;;5.36;88.69;102553.53;1809991;78;20892;-74
2021/12/17 11:07:06;;;;;;;13.03;2.92;;;;;;;5.37;88.57;102554.41;1805900;78;20891;-74
2021/12/17 11:10:02;;;;;;;15.23;3.10;;;;;;;5.37;88.67;102560.81;1819346;78;21698;-75
2021/12/17 11:12:34;;;;;;;23.87;3.80;;;;;;;5.38;88.65;102561.28;1799757;78;20923;-75
2021/12/17 11:15:24;;;;;;;8.78;2.33;;;;;;;5.41;88.64;102560.11;1821718;78;21255;-75
2021/12/17 11:17:57;;;;;;;17.98;3.02;;;;;;;5.43;88.65;102558.06;1795783;78;20896;-75
2021/12/17 11:20:31;;;;;;;17.50;3.47;;;;;;;5.42;88.61;102555.44;1756531;81;20935;-74
2021/12/17 11:23:04;;;;;;;11.05;3.40;;;;;;;5.43;88.61;102561.91;1794907;79;20878;-75
2021/12/17 11:25:27;;;;;;;22.22;3.02;;;;;;;5.43;88.59;102555.91;1778439;79;20893;-75
2021/12/17 11:27:54;;;;;;;12.05;2.70;;;;;;;5.45;88.56;102551.70;1702316;80;395974;-75
2021/12/17 11:30:24;;;;;;;14.90;3.47;;;;;;;5.49;88.61;102559.98;1691707;83;20965;-75
2021/12/17 11:32:52;;;;;;;11.53;2.77;;;;;;;5.51;88.59;102558.34;1684755;83;20998;-75
2021/12/17 11:35:22;;;;;;;14.20;3.02;;;;;;;5.51;88.58;102563.47;1678721;84;20954;-74
2021/12/17 11:37:51;;;;;;;11.88;2.33;;;;;;;5.52;88.46;102567.78;1680751;84;20957;-75
2021/12/17 11:40:47;;;;;;;13.48;2.87;;;;;;;5.56;88.47;102560.66;1684011;84;20962;-75
2021/12/17 11:43:52;;;;;;;17.42;3.92;;;;;;;5.58;88.51;102552.61;1671935;84;20942;-74
2021/12/17 11:46:25;;;;;;;15.72;3.05;;;;;;;5.59;88.49;102550.09;1673278;84;20902;-74
2021/12/17 11:48:56;;;;;;;8.95;3.35;;;;;;;5.58;88.36;102559.90;1676064;84;20946;-75
2021/12/17 11:51:30;;;;;;;16.15;3.70;;;;;;;5.60;88.43;102558.67;1665598;84;21033;-74
2021/12/17 11:54:13;;;;;;;12.68;2.87;;;;;;;5.62;88.42;102559.59;1680994;84;20954;-75
2021/12/17 11:56:50;;;;;;;20.43;4.08;;;;;;;5.63;88.40;102559.66;1680685;84;20997;-74
2021/12/17 11:59:30;;;;;;;;;;;;;;;5.64;88.35;102561.81;1683725;84;20929;-74
2021/12/17 12:02:22;;;;;;;17.05;3.05;;;;;;;5.61;88.30;102555.28;1654826;84;20135;-75
2021/12/17 12:05:01;;;;;;;14.55;3.35;;;;;;;5.58;88.36;102555.17;1652242;86;20907;-74
2021/12/17 12:07:33;;;;;;;13.10;2.90;;;;;;;5.57;88.36;102554.71;1655808;86;20912;-74
2021/12/17 12:10:14;;;;;;;12.85;3.55;;;;;;;5.58;88.37;102543.62;1677131;85;20965;-74
2021/12/17 12:12:52;;;;;;;14.18;3.55;;;;;;;5.59;88.31;102547.94;1670980;84;20925;-75
2021/12/17 12:15:31;;;;;;;12.25;3.10;;;;;;;5.60;88.33;102548.00;1676757;84;21008;-75
2021/12/17 12:18:08;;;;;;;19.50;3.42;;;;;;;5.63;88.30;102544.66;1680621;84;21060;-75
2021/12/17 12:20:55;;;;;;;20.32;3.58;;;;;;;5.63;88.33;102539.13;1672683;84;21071;-75
2021/12/17 12:23:31;;;;;;;16.97;3.10;;;;;;;5.65;88.28;102552.88;1670684;84;21109;-75
2021/12/17 12:26:12;;;;;;;14.50;3.45;;;;;;;5.64;88.17;102543.44;1670926;84;21101;-74
2021/12/17 12:28:49;;;;;;;14.07;2.98;;;;;;;5.62;88.16;102551.90;1670361;84;21090;-75
2021/12/17 12:31:38;;;;;;;17.40;3.33;;;;;;;5.63;88.17;102548.52;1674530;85;21051;-74
2021/12/17 12:34:30;;;;;;;19.40;4.10;;;;;;;5.65;88.18;102552.88;1672955;84;21537;-75
2021/12/17 12:37:23;;;;;;;12.37;2.90;;;;;;;5.65;88.16;102560.58;1673595;84;21024;-73
2021/12/17 12:39:57;;;;;;;17.70;2.77;;;;;;;5.63;88.12;102566.48;1666376;84;21031;-72
2021/12/17 12:42:35;;;;;;;13.70;3.00;;;;;;;5.59;88.06;102550.09;1666716;84;21139;-72
2021/12/17 12:45:08;;;;;;;16.93;4.25;;;;;;;5.55;87.99;102555.94;1673866;84;21093;-73
2021/12/17 12:47:54;;;;;;;14.25;2.87;;;;;;;5.52;87.99;102551.11;1675021;84;21080;-72
2021/12/17 12:50:25;;;;;;;11.03;2.85;;;;;;;5.52;88.07;102562.24;1674559;84;20977;-71
2021/12/17 12:53:10;;;;;;;15.45;2.90;;;;;;;5.51;88.06;102558.34;1671337;84;21020;-72
2021/12/17 12:55:45;;;;;;;10.53;2.55;;;;;;;5.51;88.05;102554.08;1677338;83;20922;-71
2021/12/17 12:58:17;;;;;;;12.80;2.60;;;;;;;5.52;88.01;102549.83;1674877;83;21095;-73
2021/12/17 13:00:54;;;;;;;16.02;3.72;;;;;;;5.52;88.00;102548.54;1683628;83;20965;-75
2021/12/17 13:03:26;;;;;;;19.20;3.42;;;;;;;5.53;87.99;102552.45;1685826;82;21099;-76
2021/12/17 13:05:53;;;;;;;13.25;2.85;;;;;;;5.55;87.97;102549.52;1680461;83;21012;-76
2021/12/17 13:08:23;;;;;;;14.20;3.62;;;;;;;5.54;87.95;102547.78;1686875;83;21044;-76
2021/12/17 13:10:54;;;;;;;12.37;3.10;;;;;;;5.55;88.02;102548.24;1670013;83;20898;-73
2021/12/17 13:24:19;;;;;;;20.27;3.90;;;;;;;5.54;87.87;102552.03;1687411;83;20913;-73
2021/12/17 13:27:01;;;;;;;15.88;3.75;;;;;;;5.52;87.81;102549.41;1686379;83;21529;-73
2021/12/17 13:29:34;;;;;;;14.47;2.80;;;;;;;5.54;87.85;102551.63;1692543;83;20934;-73
2021/12/17 13:32:09;;;;;;;11.48;2.98;;;;;;;5.52;87.79;102553.67;1690149;83;20870;-73
2021/12/17 13:34:47;;;;;;;11.38;2.58;;;;;;;5.53;87.74;102561.84;1683922;83;20894;-76
2021/12/17 13:37:22;;;;;;;17.52;3.33;;;;;;;5.51;87.73;102558.34;1685056;83;21052;-74
2021/12/17 13:40:12;;;;;;;11.80;3.50;;;;;;;5.48;87.73;102556.54;1684314;83;20969;-73
2021/12/17 13:42:42;;;;;;;11.12;3.00;;;;;;;5.45;87.75;102556.42;1689776;83;20934;-73
2021/12/17 13:45:13;;;;;;;19.75;3.75;;;;;;;5.42;87.70;102551.59;1689226;83;20925;-76
2021/12/17 13:47:56;;;;;;;17.90;3.15;;;;;;;5.38;87.64;102550.61;1679464;83;20986;-73
2021/12/17 13:50:32;;;;;;;12.73;3.30;;;;;;;5.36;87.56;102557.78;1684287;83;20958;-73
2021/12/17 13:53:16;;;;;;;13.85;2.83;;;;;;;5.34;87.61;102562.86;1681824;83;21049;-75
2021/12/17 13:55:47;;;;;;;17.98;3.47;;;;;;;5.30;87.62;102563.56;1687924;83;20949;-75
2021/12/17 13:58:23;;;;;;;16.85;3.33;;;;;;;5.24;87.55;102558.20;1692768;83;21096;-75
2021/12/17 14:00:59;;;;;;;12.25;2.92;;;;;;;5.19;87.60;102563.61;1695993;83;21024;-76
2021/12/17 14:03:33;;;;;;;17.75;3.20;;;;;;;5.14;87.52;102564.72;1695880;83;21108;-77
2021/12/17 14:06:09;;;;;;;15.08;2.80;;;;;;;5.09;87.52;102576.48;1723198;82;20971;-76
2021/12/17 14:08:26;;;;;;;14.13;3.20;;;;;;;5.03;87.51;102577.54;1592285;79;10000611;-76
2021/12/17 14:10:54;;;;;;;22.27;3.83;;;;;;;4.98;87.51;102576.48;1723735;82;26673;-76
2021/12/17 14:13:27;;;;;;;14.05;3.22;;;;;;;4.92;87.54;102572.41;1723329;82;21000;-76
2021/12/17 14:15:55;;;;;;;13.48;3.08;;;;;;;4.87;87.50;102576.48;1729630;82;21424;-76
2021/12/17 14:18:24;;;;;;;9.65;3.25;;;;;;;4.82;87.52;102583.11;1704949;82;21711;-76
2021/12/17 14:20:57;;;;;;;14.30;3.37;;;;;;;4.76;87.49;102591.44;1683301;83;20985;-76
2021/12/17 14:23:28;;;;;;;14.90;3.27;;;;;;;4.71;87.51;102592.94;1729849;82;21044;-76
2021/12/17 14:26:00;;;;;;;22.48;4.30;;;;;;;4.66;87.51;102594.48;1707736;82;21052;-76
2021/12/17 14:28:36;;;;;;;11.95;2.77;;;;;;;4.62;87.50;102583.64;1616356;80;10001020;-73
2021/12/17 14:31:09;;;;;;;20.27;3.30;;;;;;;4.59;87.48;102579.67;1679362;83;21759;-73
2021/12/17 14:33:49;;;;;;;18.27;3.70;;;;;;;4.53;87.47;102579.43;1687202;83;21563;-73
2021/12/17 14:36:22;;;;;;;19.20;3.83;;;;;;;4.49;87.50;102587.80;1710742;82;20908;-73
2021/12/17 14:39:00;;;;;;;12.35;3.37;;;;;;;4.45;87.50;102589.77;1714694;82;28165;-73
2021/12/17 14:41:57;;;;;;;18.37;3.47;;;;;;;4.40;87.53;102598.55;1713862;82;21492;-73
2021/12/17 14:44:18;;;;;;;19.60;4.22;;;;;;;4.37;87.49;102595.86;1711622;82;20961;-73
2021/12/17 14:46:53;;;;;;;19.73;4.10;;;;;;;4.34;87.51;102598.30;1728844;79;20870;-73
2021/12/17 15:05:58;;;;;;;14.33;3.87;;;;;;;4.14;87.49;102578.70;1739624;82;20846;-77
2021/12/17 15:08:25;;;;;;;20.27;4.17;;;;;;;4.11;87.50;102581.13;1713378;82;20939;-75
2021/12/17 15:10:52;;;;;;;12.10;4.17;;;;;;;4.09;87.50;102584.91;1712550;82;21012;-76
2021/12/17 15:13:19;;;;;;;19.73;5.37;;;;;;;4.08;87.49;102579.32;1725916;82;20985;-76
2021/12/17 15:15:46;;;;;;;24.92;4.05;;;;;;;4.06;87.47;102568.14;1666347;84;28670;-76